createdAt,value
2019-04-14T00:00:53.379Z,4.95
2019-04-14T00:01:54.430Z,4.95
2019-04-14T00:02:53.371Z,4.94
2019-04-14T00:03:54.342Z,4.98
2019-04-14T00:04:53.337Z,4.99
2019-04-14T00:05:53.924Z,4.96
2019-04-14T00:06:53.327Z,4.98
2019-04-14T00:07:53.799Z,4.95
2019-04-14T00:08:54.342Z,4.98
2019-04-14T00:09:54.167Z,5.01
2019-04-14T00:10:53.280Z,4.92
2019-04-14T00:11:53.262Z,4.96
2019-04-14T00:12:53.552Z,4.94
2019-04-14T00:13:54.453Z,5.01
2019-04-14T00:14:53.445Z,4.95
2019-04-14T00:15:53.816Z,4.92
2019-04-14T00:16:53.256Z,4.96
2019-04-14T00:17:53.207Z,4.92
2019-04-14T00:18:53.410Z,4.92
2019-04-14T00:19:54.401Z,4.95
2019-04-14T00:20:53.465Z,4.89
2019-04-14T00:21:54.181Z,4.91
2019-04-14T00:22:53.442Z,4.86
2019-04-14T00:23:54.370Z,4.92
2019-04-14T00:24:53.261Z,4.77
2019-04-14T00:25:54.330Z,4.94
2019-04-14T00:26:53.163Z,4.96
2019-04-14T00:27:54.259Z,4.89
2019-04-14T00:28:53.463Z,4.96
2019-04-14T00:29:53.078Z,4.89
2019-04-14T00:30:53.396Z,4.88
2019-04-14T00:31:54.185Z,4.75
2019-04-14T00:32:53.161Z,4.92
2019-04-14T00:33:54.167Z,4.88
2019-04-14T00:34:53.035Z,4.86
2019-04-14T00:35:53.882Z,4.88
2019-04-14T00:36:53.004Z,4.91
2019-04-14T00:37:53.393Z,4.88
2019-04-14T00:38:54.054Z,4.86
2019-04-14T00:39:53.283Z,4.83
2019-04-14T00:40:53.997Z,4.84
2019-04-14T00:41:57.005Z,4.88
2019-04-14T00:42:53.918Z,4.91
2019-04-14T00:43:52.916Z,4.88
2019-04-14T00:44:53.839Z,4.89
2019-04-14T00:45:55.042Z,4.89
2019-04-14T00:46:53.798Z,4.91
2019-04-14T00:48:02.345Z,4.89
2019-04-14T00:48:54.020Z,4.89
2019-04-14T00:49:53.046Z,4.89
2019-04-14T00:50:53.834Z,4.83
2019-04-14T00:51:52.934Z,4.91
2019-04-14T00:52:52.804Z,4.88
2019-04-14T00:53:53.578Z,4.89
2019-04-14T00:54:52.798Z,4.88
2019-04-14T00:55:53.345Z,4.86
2019-04-14T00:56:52.797Z,4.89
2019-04-14T00:57:52.995Z,4.89
2019-04-14T00:58:53.850Z,4.95
2019-04-14T00:59:53.061Z,4.95
2019-04-14T01:00:53.774Z,4.95
2019-04-14T01:01:52.809Z,4.75
2019-04-14T01:02:53.719Z,4.91
2019-04-14T01:03:52.700Z,4.91
2019-04-14T01:04:53.419Z,4.89
2019-04-14T01:05:52.727Z,4.91
2019-04-14T01:06:53.347Z,4.89
2019-04-14T01:07:52.642Z,4.89
2019-04-14T01:08:53.353Z,4.84
2019-04-14T01:09:53.200Z,4.89
2019-04-14T01:10:52.617Z,4.95
2019-04-14T01:11:53.151Z,4.91
2019-04-14T01:12:53.828Z,4.94
2019-04-14T01:13:52.970Z,4.86
2019-04-14T01:14:53.769Z,4.80
2019-04-14T01:16:01.887Z,4.86
2019-04-14T01:16:53.805Z,4.86
2019-04-14T01:17:52.883Z,4.83
2019-04-14T01:18:53.662Z,4.80
2019-04-14T01:19:52.766Z,4.80
2019-04-14T01:20:53.622Z,4.86
2019-04-14T01:21:52.603Z,4.79
2019-04-14T01:22:53.167Z,4.84
2019-04-14T01:23:52.469Z,4.91
2019-04-14T01:24:53.259Z,4.83
2019-04-14T01:25:52.469Z,4.79
2019-04-14T01:26:52.873Z,4.89
2019-04-14T01:27:52.430Z,4.88
2019-04-14T01:28:52.679Z,4.88
2019-04-14T01:29:52.414Z,4.89
2019-04-14T01:30:52.412Z,4.83
2019-04-14T01:31:53.555Z,4.84
2019-04-14T01:32:52.371Z,4.89
2019-04-14T01:33:53.334Z,4.83
2019-04-14T01:34:53.915Z,4.80
2019-04-14T01:35:53.145Z,4.79
2019-04-14T01:36:52.346Z,4.70
2019-04-14T01:37:52.927Z,4.77
2019-04-14T01:38:53.503Z,4.73
2019-04-14T01:39:52.532Z,4.77
2019-04-14T01:40:53.151Z,4.83
2019-04-14T01:41:52.299Z,4.73
2019-04-14T01:42:52.763Z,4.73
2019-04-14T01:43:52.264Z,4.69
2019-04-14T01:44:52.541Z,4.61
2019-04-14T01:46:03.674Z,4.65
2019-04-14T01:46:54.252Z,4.65
2019-04-14T01:47:53.308Z,4.72
2019-04-14T01:48:52.203Z,4.59
2019-04-14T01:49:53.032Z,4.55
2019-04-14T01:50:52.167Z,4.54
2019-04-14T01:51:52.851Z,4.61
2019-04-14T01:52:52.312Z,4.59
2019-04-14T01:53:53.154Z,4.51
2019-04-14T01:54:52.152Z,4.54
2019-04-14T01:55:52.704Z,4.55
2019-04-14T01:56:52.109Z,4.52
2019-04-14T01:57:52.462Z,4.58
2019-04-14T01:58:53.304Z,4.58
2019-04-14T01:59:52.558Z,4.54
2019-04-14T02:00:53.058Z,4.59
2019-04-14T02:01:52.121Z,4.44
2019-04-14T02:02:53.070Z,4.59
2019-04-14T02:03:52.084Z,4.54
2019-04-14T02:04:52.889Z,4.55
2019-04-14T02:05:52.006Z,4.47
2019-04-14T02:06:52.743Z,4.55
2019-04-14T02:07:52.025Z,4.46
2019-04-14T02:08:52.271Z,4.54
2019-04-14T02:09:53.197Z,4.52
2019-04-14T02:10:52.101Z,4.55
2019-04-14T02:11:53.093Z,4.51
2019-04-14T02:12:51.953Z,4.57
2019-04-14T02:13:52.907Z,4.59
2019-04-14T02:14:51.917Z,4.52
2019-04-14T02:15:52.842Z,4.57
2019-04-14T02:16:56.106Z,4.54
2019-04-14T02:17:52.878Z,4.55
2019-04-14T02:18:53.624Z,4.54
2019-04-14T02:19:52.364Z,4.44
2019-04-14T02:20:51.851Z,4.46
2019-04-14T02:21:52.060Z,4.43
2019-04-14T02:22:53.033Z,4.44
2019-04-14T02:23:51.931Z,4.42
2019-04-14T02:24:52.838Z,4.42
2019-04-14T02:25:51.807Z,4.43
2019-04-14T02:26:52.636Z,4.33
2019-04-14T02:27:51.779Z,4.36
2019-04-14T02:28:52.843Z,4.36
2019-04-14T02:29:51.775Z,4.29
2019-04-14T02:31:06.394Z,4.32
2019-04-14T02:32:25.496Z,4.32
2019-04-14T02:33:25.990Z,4.34
2019-04-14T02:34:32.114Z,4.26
2019-04-14T02:35:25.650Z,4.18
2019-04-14T02:36:21.968Z,4.19
2019-04-14T02:37:19.610Z,4.16
2019-04-14T02:38:34.220Z,4.22
2019-04-14T02:39:20.404Z,4.14
2019-04-14T02:40:27.310Z,4.19
2019-04-14T02:41:29.664Z,4.19
2019-04-14T02:42:30.667Z,4.12
2019-04-14T02:43:25.752Z,4.16
2019-04-14T02:44:24.134Z,4.10
2019-04-14T02:45:32.218Z,4.14
2019-04-14T02:46:39.808Z,4.18
2019-04-14T02:47:36.368Z,4.15
2019-04-14T02:49:18.704Z,4.14
2019-04-14T02:50:18.225Z,4.16
2019-04-14T02:51:21.089Z,4.12
2019-04-14T02:52:20.625Z,4.16
2019-04-14T02:53:24.400Z,4.15
2019-04-14T02:54:33.633Z,4.14
2019-04-14T02:55:19.395Z,4.10
2019-04-14T02:56:22.413Z,4.12
2019-04-14T02:57:27.150Z,4.12
2019-04-14T02:58:18.517Z,4.08
2019-04-14T02:59:22.762Z,4.00
2019-04-14T03:01:25.590Z,4.03
2019-04-14T03:03:24.041Z,3.97
2019-04-14T03:04:19.471Z,4.03
2019-04-14T03:05:19.642Z,4.03
2019-04-14T03:07:21.847Z,4.01
2019-04-14T03:08:25.820Z,4.01
2019-04-14T03:09:32.110Z,3.98
2019-04-14T03:10:29.887Z,4.01
2019-04-14T03:11:17.144Z,3.90
2019-04-14T03:12:16.909Z,4.00
2019-04-14T03:14:21.478Z,3.97
2019-04-14T03:15:19.474Z,3.97
2019-04-14T03:16:27.221Z,3.97
2019-04-14T03:18:35.571Z,3.98
2019-04-14T03:19:14.490Z,3.97
2019-04-14T03:21:21.345Z,3.90
2019-04-14T03:22:32.927Z,4.00
2019-04-14T03:23:30.867Z,3.97
2019-04-14T03:24:15.879Z,3.97
2019-04-14T03:25:08.080Z,3.94
2019-04-14T03:26:11.967Z,3.89
2019-04-14T03:27:24.772Z,3.90
2019-04-14T03:28:22.906Z,3.96
2019-04-14T03:29:21.177Z,3.97
2019-04-14T03:31:37.641Z,3.89
2019-04-14T03:35:51.083Z,3.80
2019-04-14T03:36:58.655Z,3.85
2019-04-14T03:37:39.645Z,3.88
2019-04-14T03:38:24.633Z,3.96
2019-04-14T03:39:17.847Z,3.82
2019-04-14T03:40:23.627Z,3.88
2019-04-14T03:41:23.775Z,3.90
2019-04-14T03:42:21.433Z,3.96
2019-04-14T03:43:33.837Z,3.97
2019-04-14T03:44:16.697Z,3.94
2019-04-14T03:45:28.421Z,3.94
2019-04-14T03:47:21.366Z,3.80
2019-04-14T03:48:45.200Z,3.90
2019-04-14T03:50:21.600Z,3.88
2019-04-14T03:51:34.607Z,3.88
2019-04-14T03:53:22.155Z,3.88
2019-04-14T03:54:12.474Z,3.88
2019-04-14T03:55:09.467Z,3.89
2019-04-14T03:55:58.786Z,3.80
2019-04-14T03:56:51.815Z,3.72
2019-04-14T03:57:51.903Z,3.80
2019-04-14T03:58:51.119Z,3.79
2019-04-14T03:59:52.019Z,3.88
2019-04-14T04:00:51.519Z,3.80
2019-04-14T04:01:52.111Z,3.78
2019-04-14T04:02:51.202Z,3.78
2019-04-14T04:03:50.740Z,3.71
2019-04-14T04:04:51.297Z,3.80
2019-04-14T04:05:50.698Z,3.71
2019-04-14T04:06:51.047Z,3.76
2019-04-14T04:07:51.688Z,3.71
2019-04-14T04:08:50.960Z,3.72
2019-04-14T04:09:51.783Z,3.70
2019-04-14T04:10:51.105Z,3.83
2019-04-14T04:11:51.895Z,3.86
2019-04-14T04:12:51.141Z,3.85
2019-04-14T04:13:50.609Z,3.90
2019-04-14T04:14:51.058Z,3.96
2019-04-14T04:15:51.885Z,3.86
2019-04-14T04:16:50.818Z,3.90
2019-04-14T04:17:51.612Z,3.92
2019-04-14T04:18:57.920Z,3.83
2019-04-14T04:19:51.590Z,3.85
2019-04-14T04:20:50.550Z,3.83
2019-04-14T04:21:50.917Z,3.83
2019-04-14T04:22:50.524Z,3.83
2019-04-14T04:23:51.152Z,3.85
2019-04-14T04:24:50.491Z,3.82
2019-04-14T04:25:50.819Z,3.89
2019-04-14T04:26:50.475Z,3.85
2019-04-14T04:27:50.537Z,3.86
2019-04-14T04:28:51.699Z,3.86
2019-04-14T04:29:50.647Z,3.88
2019-04-14T04:30:51.606Z,3.86
2019-04-14T04:31:50.504Z,3.85
2019-04-14T04:32:51.456Z,3.83
2019-04-14T04:33:50.404Z,3.85
2019-04-14T04:34:51.253Z,3.82
2019-04-14T04:35:50.401Z,3.86
2019-04-14T04:36:50.899Z,3.86
2019-04-14T04:37:50.382Z,3.82
2019-04-14T04:38:50.985Z,3.83
2019-04-14T04:39:50.336Z,3.86
2019-04-14T04:40:50.760Z,3.90
2019-04-14T04:41:51.490Z,3.88
2019-04-14T04:42:50.540Z,3.89
2019-04-14T04:43:50.297Z,3.79
2019-04-14T04:44:50.979Z,3.82
2019-04-14T04:45:50.266Z,3.90
2019-04-14T04:46:50.519Z,3.83
2019-04-14T04:47:51.251Z,3.85
2019-04-14T04:49:00.932Z,3.86
2019-04-14T04:49:51.286Z,3.83
2019-04-14T04:50:50.213Z,3.79
2019-04-14T04:51:50.826Z,3.89
2019-04-14T04:52:50.216Z,3.86
2019-04-14T04:53:50.535Z,3.80
2019-04-14T04:54:50.181Z,3.85
2019-04-14T04:55:50.442Z,3.89
2019-04-14T04:56:50.148Z,3.88
2019-04-14T04:57:50.274Z,3.76
2019-04-14T04:58:50.238Z,3.76
2019-04-14T04:59:50.122Z,3.79
2019-04-14T05:00:52.524Z,3.70
2019-04-14T05:01:50.134Z,3.75
2019-04-14T05:02:50.596Z,3.64
2019-04-14T05:03:51.330Z,3.60
2019-04-14T05:04:50.517Z,3.58
2019-04-14T05:05:51.188Z,3.65
2019-04-14T05:06:50.559Z,3.68
2019-04-14T05:07:51.154Z,3.53
2019-04-14T05:08:50.271Z,3.60
2019-04-14T05:09:50.987Z,3.52
2019-04-14T05:10:50.288Z,3.58
2019-04-14T05:11:52.637Z,3.64
2019-04-14T05:12:50.228Z,3.58
2019-04-14T05:13:51.148Z,3.58
2019-04-14T05:14:50.183Z,3.64
2019-04-14T05:15:51.049Z,3.58
2019-04-14T05:16:50.740Z,3.54
2019-04-14T05:17:49.917Z,3.54
2019-04-14T05:18:50.864Z,3.61
2019-04-14T05:19:49.897Z,3.52
2019-04-14T05:20:50.964Z,3.50
2019-04-14T05:21:49.874Z,3.49
2019-04-14T05:22:50.825Z,3.60
2019-04-14T05:23:49.859Z,3.60
2019-04-14T05:24:50.724Z,3.53
2019-04-14T05:25:49.837Z,3.57
2019-04-14T05:26:50.578Z,3.52
2019-04-14T05:27:49.818Z,3.53
2019-04-14T05:28:50.647Z,3.61
2019-04-14T05:29:49.773Z,3.46
2019-04-14T05:30:50.359Z,3.47
2019-04-14T05:31:49.768Z,3.44
2019-04-14T05:32:50.175Z,3.52
2019-04-14T05:33:49.772Z,3.49
2019-04-14T05:34:50.155Z,3.50
2019-04-14T05:35:50.850Z,3.46
2019-04-14T05:36:49.991Z,3.46
2019-04-14T05:37:50.743Z,3.47
2019-04-14T05:38:49.745Z,3.60
2019-04-14T05:39:50.506Z,3.47
2019-04-14T05:40:49.696Z,3.50
2019-04-14T05:42:00.313Z,3.52
2019-04-14T05:42:51.616Z,3.52
2019-04-14T05:43:55.145Z,3.53
2019-04-14T05:44:51.521Z,3.49
2019-04-14T05:45:50.131Z,3.60
2019-04-14T05:46:49.612Z,3.54
2019-04-14T05:47:50.136Z,3.57
2019-04-14T05:48:49.588Z,3.64
2019-04-14T05:49:52.699Z,3.62
2019-04-14T05:50:49.567Z,3.60
2019-04-14T05:51:50.222Z,3.71
2019-04-14T05:52:49.568Z,3.62
2019-04-14T05:53:50.174Z,3.65
2019-04-14T05:54:49.518Z,3.64
2019-04-14T05:55:50.389Z,3.65
2019-04-14T05:56:49.515Z,3.79
2019-04-14T05:57:50.263Z,3.68
2019-04-14T05:58:49.503Z,3.75
2019-04-14T05:59:50.457Z,3.65
2019-04-14T06:00:50.549Z,3.67
2019-04-14T06:01:49.438Z,3.68
2019-04-14T06:02:50.539Z,3.70
2019-04-14T06:03:49.684Z,3.72
2019-04-14T06:04:50.419Z,3.76
2019-04-14T06:05:49.401Z,3.71
2019-04-14T06:06:49.405Z,3.80
2019-04-14T06:07:49.374Z,3.78
2019-04-14T06:08:49.384Z,3.78
2019-04-14T06:09:49.390Z,3.83
2019-04-14T06:10:49.337Z,3.96
2019-04-14T06:11:49.341Z,3.83
2019-04-14T06:12:49.342Z,3.80
2019-04-14T06:13:49.311Z,3.76
2019-04-14T06:14:49.301Z,3.76
2019-04-14T06:15:49.288Z,3.71
2019-04-14T06:16:49.271Z,3.76
2019-04-14T06:17:49.268Z,3.75
2019-04-14T06:18:49.284Z,3.76
2019-04-14T06:19:49.268Z,3.72
2019-04-14T06:20:49.247Z,3.79
2019-04-14T06:21:49.203Z,3.79
2019-04-14T06:22:49.210Z,3.71
2019-04-14T06:23:49.193Z,3.65
2019-04-14T06:24:49.195Z,3.67
2019-04-14T06:25:49.169Z,3.78
2019-04-14T06:26:49.151Z,3.78
2019-04-14T06:27:49.142Z,3.80
2019-04-14T06:28:49.148Z,3.86
2019-04-14T06:29:49.156Z,3.79
2019-04-14T06:30:49.117Z,3.76
2019-04-14T06:31:49.108Z,3.76
2019-04-14T06:32:49.097Z,3.71
2019-04-14T06:33:49.081Z,3.68
2019-04-14T06:34:49.105Z,3.68
2019-04-14T06:35:49.061Z,3.68
2019-04-14T06:36:49.071Z,3.64
2019-04-14T06:37:49.047Z,3.65
2019-04-14T06:38:49.031Z,3.58
2019-04-14T06:39:49.030Z,3.57
2019-04-14T06:40:49.022Z,3.52
2019-04-14T06:41:49.010Z,3.52
2019-04-14T06:42:48.998Z,3.49
2019-04-14T06:43:49.415Z,3.62
2019-04-14T06:44:48.972Z,3.54
2019-04-14T06:45:48.957Z,3.58
2019-04-14T06:46:48.928Z,3.67
2019-04-14T06:47:48.915Z,3.57
2019-04-14T06:48:48.940Z,3.64
2019-04-14T06:49:49.479Z,3.53
2019-04-14T06:50:48.928Z,3.67
2019-04-14T06:51:48.908Z,3.71
2019-04-14T06:52:48.887Z,3.64
2019-04-14T06:53:48.860Z,3.61
2019-04-14T06:54:48.866Z,3.75
2019-04-14T06:55:48.872Z,3.62
2019-04-14T06:56:48.820Z,3.62
2019-04-14T06:57:48.821Z,3.62
2019-04-14T06:58:48.817Z,3.60
2019-04-14T06:59:48.797Z,3.67
2019-04-14T07:00:48.796Z,3.58
2019-04-14T07:01:48.795Z,3.67
2019-04-14T07:02:48.768Z,3.72
2019-04-14T07:03:48.752Z,3.80
2019-04-14T07:04:48.750Z,3.71
2019-04-14T07:05:48.729Z,3.72
2019-04-14T07:06:51.303Z,3.71
2019-04-14T07:07:57.008Z,3.72
2019-04-14T07:08:49.709Z,3.79
2019-04-14T07:09:48.706Z,3.72
2019-04-14T07:10:48.670Z,3.67
2019-04-14T07:11:48.661Z,3.71
2019-04-14T07:12:48.679Z,3.79
2019-04-14T07:13:48.652Z,3.76
2019-04-14T07:14:48.656Z,3.82
2019-04-14T07:15:48.635Z,3.79
2019-04-14T07:16:51.300Z,3.83
2019-04-14T07:17:48.625Z,3.96
2019-04-14T07:18:48.593Z,3.97
2019-04-14T07:20:01.027Z,4.00
2019-04-14T07:20:49.579Z,3.98
2019-04-14T07:21:49.409Z,3.96
2019-04-14T07:22:48.546Z,3.97
2019-04-14T07:23:48.544Z,3.98
2019-04-14T07:24:48.527Z,4.14
2019-04-14T07:25:48.511Z,4.10
2019-04-14T07:26:48.520Z,3.97
2019-04-14T07:27:48.527Z,4.04
2019-04-14T07:28:56.556Z,4.06
2019-04-14T07:29:49.484Z,4.01
2019-04-14T07:30:48.454Z,4.03
2019-04-14T07:31:48.447Z,4.03
2019-04-14T07:32:48.514Z,4.04
2019-04-14T07:33:48.441Z,3.94
2019-04-14T07:34:48.419Z,4.10
2019-04-14T07:35:48.408Z,4.10
2019-04-14T07:36:48.395Z,3.97
2019-04-14T07:37:48.375Z,4.14
2019-04-14T07:38:48.407Z,4.12
2019-04-14T07:39:48.353Z,4.08
2019-04-14T07:40:48.356Z,4.15
2019-04-14T07:41:48.350Z,4.16
2019-04-14T07:42:48.329Z,4.16
2019-04-14T07:43:48.309Z,4.21
2019-04-14T07:44:48.334Z,4.18
2019-04-14T07:45:48.295Z,4.19
2019-04-14T07:46:48.298Z,4.15
2019-04-14T07:47:48.284Z,4.22
2019-04-14T07:48:48.258Z,4.21
2019-04-14T07:49:48.270Z,4.24
2019-04-14T07:50:48.249Z,4.22
2019-04-14T07:51:48.233Z,4.18
2019-04-14T07:52:48.227Z,4.25
2019-04-14T07:53:48.225Z,4.24
2019-04-14T07:54:48.230Z,4.32
2019-04-14T07:55:48.186Z,4.42
2019-04-14T07:56:48.171Z,4.44
2019-04-14T07:57:48.168Z,4.58
2019-04-14T07:58:48.151Z,4.54
2019-04-14T07:59:48.143Z,4.58
2019-04-14T08:00:48.142Z,4.51
2019-04-14T08:01:48.129Z,4.61
2019-04-14T08:02:48.099Z,4.58
2019-04-14T08:03:48.097Z,4.65
2019-04-14T08:04:48.096Z,4.65
2019-04-14T08:05:48.102Z,4.61
2019-04-14T08:06:48.071Z,4.55
2019-04-14T08:07:48.061Z,4.54
2019-04-14T08:08:48.035Z,4.59
2019-04-14T08:09:48.041Z,4.47
2019-04-14T08:10:48.042Z,4.51
2019-04-14T08:11:48.018Z,4.65
2019-04-14T08:12:48.005Z,4.75
2019-04-14T08:13:47.998Z,4.77
2019-04-14T08:14:47.977Z,4.83
2019-04-14T08:15:47.983Z,4.79
2019-04-14T08:16:47.961Z,4.79
2019-04-14T08:17:47.962Z,4.77
2019-04-14T08:18:47.940Z,4.77
2019-04-14T08:19:47.929Z,4.77
2019-04-14T08:20:47.954Z,4.83
2019-04-14T08:21:47.897Z,4.89
2019-04-14T08:22:47.883Z,4.94
2019-04-14T08:23:47.872Z,4.98
2019-04-14T08:24:47.874Z,4.99
2019-04-14T08:25:47.877Z,4.92
2019-04-14T08:26:47.884Z,4.96
2019-04-14T08:27:47.836Z,4.86
2019-04-14T08:28:47.820Z,4.86
2019-04-14T08:29:47.806Z,4.94
2019-04-14T08:30:47.816Z,4.95
2019-04-14T08:31:47.798Z,4.95
2019-04-14T08:32:47.807Z,4.95
2019-04-14T08:33:47.768Z,4.89
2019-04-14T08:34:47.753Z,4.99
2019-04-14T08:35:47.748Z,4.91
2019-04-14T08:36:47.735Z,4.98
2019-04-14T08:37:47.795Z,4.94
2019-04-14T08:38:47.716Z,4.92
2019-04-14T08:39:47.703Z,5.04
2019-04-14T08:40:47.686Z,4.96
2019-04-14T08:41:47.677Z,4.99
2019-04-14T08:42:47.722Z,5.10
2019-04-14T08:43:47.654Z,5.04
2019-04-14T08:44:47.653Z,5.09
2019-04-14T08:45:48.382Z,5.09
2019-04-14T08:46:47.630Z,5.05
2019-04-14T08:47:47.651Z,5.04
2019-04-14T08:48:47.614Z,5.01
2019-04-14T08:49:47.598Z,5.14
2019-04-14T08:50:47.582Z,5.17
2019-04-14T08:51:47.600Z,5.19
2019-04-14T08:52:47.620Z,5.13
2019-04-14T08:53:47.566Z,5.14
2019-04-14T08:54:47.545Z,5.16
2019-04-14T08:55:47.530Z,5.16
2019-04-14T08:56:47.524Z,5.16
2019-04-14T08:57:47.509Z,5.16
2019-04-14T08:58:47.531Z,5.30
2019-04-14T08:59:47.489Z,5.34
2019-04-14T09:00:47.476Z,5.40
2019-04-14T09:01:47.455Z,5.46
2019-04-14T09:02:47.458Z,5.50
2019-04-14T09:03:47.467Z,5.53
2019-04-14T09:04:47.425Z,5.52
2019-04-14T09:05:47.404Z,5.50
2019-04-14T09:06:47.408Z,5.56
2019-04-14T09:07:47.517Z,5.63
2019-04-14T09:08:47.398Z,5.66
2019-04-14T09:09:47.411Z,5.63
2019-04-14T09:10:47.406Z,5.74
2019-04-14T09:11:47.355Z,5.77
2019-04-14T09:12:47.346Z,5.68
2019-04-14T09:13:47.388Z,5.85
2019-04-14T09:14:56.929Z,5.82
2019-04-14T09:15:48.302Z,6.00
2019-04-14T09:16:47.307Z,5.95
2019-04-14T09:17:47.282Z,6.01
2019-04-14T09:18:47.268Z,6.01
2019-04-14T09:19:47.288Z,5.83
2019-04-14T09:20:52.567Z,5.86
2019-04-14T09:21:48.284Z,5.89
2019-04-14T09:22:47.266Z,5.89
2019-04-14T09:23:47.231Z,5.93
2019-04-14T09:24:47.254Z,6.01
2019-04-14T09:25:47.196Z,5.92
2019-04-14T09:26:47.187Z,5.93
2019-04-14T09:27:47.176Z,5.95
2019-04-14T09:28:47.175Z,5.98
2019-04-14T09:29:47.158Z,6.00
2019-04-14T09:30:47.167Z,6.01
2019-04-14T09:31:47.140Z,5.98
2019-04-14T09:32:47.111Z,6.01
2019-04-14T09:33:47.105Z,6.04
2019-04-14T09:34:47.096Z,5.98
2019-04-14T09:35:47.111Z,5.92
2019-04-14T09:36:47.074Z,6.01
2019-04-14T09:37:47.075Z,5.91
2019-04-14T09:38:47.046Z,6.03
2019-04-14T09:39:47.044Z,6.04
2019-04-14T09:40:47.069Z,6.10
2019-04-14T09:41:47.027Z,6.04
2019-04-14T09:42:47.006Z,6.06
2019-04-14T09:43:47.001Z,6.09
2019-04-14T09:44:46.994Z,6.10
2019-04-14T09:45:46.975Z,6.09
2019-04-14T09:46:46.992Z,6.10
2019-04-14T09:47:46.946Z,6.01
2019-04-14T09:48:46.950Z,6.09
2019-04-14T09:49:46.941Z,6.13
2019-04-14T09:50:46.922Z,6.11
2019-04-14T09:51:46.913Z,6.14
2019-04-14T09:52:46.894Z,6.14
2019-04-14T09:53:46.904Z,6.21
2019-04-14T09:54:46.889Z,6.06
2019-04-14T09:55:46.896Z,6.06
2019-04-14T09:56:46.871Z,6.13
2019-04-14T09:57:46.843Z,6.01
2019-04-14T09:58:46.826Z,6.04
2019-04-14T09:59:46.817Z,6.04
2019-04-14T10:00:46.822Z,5.95
2019-04-14T10:01:46.823Z,6.01
2019-04-14T10:02:46.795Z,5.93
2019-04-14T10:03:46.787Z,5.88
2019-04-14T10:04:46.770Z,5.91
2019-04-14T10:05:46.756Z,6.00
2019-04-14T10:06:46.766Z,6.00
2019-04-14T10:07:46.743Z,5.96
2019-04-14T10:08:46.721Z,5.89
2019-04-14T10:09:46.713Z,6.04
2019-04-14T10:10:46.701Z,6.01
2019-04-14T10:11:48.988Z,6.04
2019-04-14T10:12:46.706Z,6.06
2019-04-14T10:13:46.691Z,6.10
2019-04-14T10:14:46.659Z,6.07
2019-04-14T10:15:46.656Z,6.09
2019-04-14T10:16:46.688Z,6.04
2019-04-14T10:17:46.643Z,6.16
2019-04-14T10:18:46.615Z,6.10
2019-04-14T10:19:46.598Z,6.07
2019-04-14T10:20:46.605Z,6.10
2019-04-14T10:21:46.593Z,6.09
2019-04-14T10:22:46.601Z,6.18
2019-04-14T10:23:46.554Z,6.11
2019-04-14T10:24:46.562Z,6.10
2019-04-14T10:25:46.562Z,6.10
2019-04-14T10:26:46.534Z,6.06
2019-04-14T10:27:46.561Z,6.09
2019-04-14T10:28:46.525Z,6.03
2019-04-14T10:29:46.494Z,6.01
2019-04-14T10:30:46.481Z,6.01
2019-04-14T10:31:46.471Z,5.92
2019-04-14T10:32:46.466Z,5.93
2019-04-14T10:33:46.475Z,6.06
2019-04-14T10:34:46.446Z,6.03
2019-04-14T10:35:46.474Z,5.95
2019-04-14T10:36:46.414Z,5.92
2019-04-14T10:37:46.402Z,6.06
2019-04-14T10:38:46.428Z,6.06
2019-04-14T10:39:46.384Z,6.06
2019-04-14T10:40:46.385Z,6.04
2019-04-14T10:41:46.366Z,6.07
2019-04-14T10:42:46.349Z,6.14
2019-04-14T10:43:46.354Z,6.25
2019-04-14T10:44:46.333Z,6.21
2019-04-14T10:45:46.324Z,6.13
2019-04-14T10:46:46.311Z,6.07
2019-04-14T10:47:46.307Z,6.09
2019-04-14T10:48:46.303Z,6.14
2019-04-14T10:49:46.268Z,6.19
2019-04-14T10:50:46.266Z,6.21
2019-04-14T10:51:46.263Z,6.32
2019-04-14T10:52:46.239Z,6.18
2019-04-14T10:53:46.254Z,6.30
2019-04-14T10:54:46.232Z,6.30
2019-04-14T10:55:46.202Z,6.32
2019-04-14T10:56:46.202Z,6.26
2019-04-14T10:57:46.193Z,6.29
2019-04-14T10:58:46.178Z,6.21
2019-04-14T10:59:46.187Z,6.18
2019-04-14T11:00:46.146Z,6.26
2019-04-14T11:01:46.145Z,6.21
2019-04-14T11:02:46.126Z,6.22
2019-04-14T11:03:46.124Z,6.29
2019-04-14T11:04:46.141Z,6.35
2019-04-14T11:05:46.101Z,6.41
2019-04-14T11:06:46.090Z,6.47
2019-04-14T11:07:46.086Z,6.41
2019-04-14T11:08:46.063Z,6.41
2019-04-14T11:09:46.053Z,6.44
2019-04-14T11:10:46.073Z,6.38
2019-04-14T11:11:46.082Z,6.41
2019-04-14T11:12:46.019Z,6.38
2019-04-14T11:13:46.015Z,6.43
2019-04-14T11:14:46.015Z,6.47
2019-04-14T11:15:45.984Z,6.28
2019-04-14T11:16:45.980Z,6.43
2019-04-14T11:17:45.971Z,6.44
2019-04-14T11:18:45.961Z,6.48
2019-04-14T11:19:45.967Z,6.58
2019-04-14T11:20:45.940Z,6.56
2019-04-14T11:21:45.923Z,6.61
2019-04-14T11:22:45.900Z,6.63
2019-04-14T11:23:45.895Z,6.68
2019-04-14T11:24:45.918Z,6.77
2019-04-14T11:25:45.886Z,6.83
2019-04-14T11:26:45.887Z,6.76
2019-04-14T11:27:45.852Z,6.83
2019-04-14T11:28:45.847Z,6.84
2019-04-14T11:29:45.839Z,6.84
2019-04-14T11:30:45.818Z,6.91
2019-04-14T11:31:45.844Z,6.90
2019-04-14T11:32:45.792Z,6.97
2019-04-14T11:33:45.780Z,6.89
2019-04-14T11:34:45.771Z,6.91
2019-04-14T11:35:45.771Z,6.94
2019-04-14T11:36:45.792Z,6.94
2019-04-14T11:37:45.766Z,6.91
2019-04-14T11:38:45.754Z,6.99
2019-04-14T11:39:45.736Z,7.13
2019-04-14T11:40:45.720Z,7.02
2019-04-14T11:41:45.706Z,7.09
2019-04-14T11:42:52.273Z,7.16
2019-04-14T11:43:46.693Z,7.16
2019-04-14T11:44:45.695Z,7.20
2019-04-14T11:45:45.673Z,7.34
2019-04-14T11:46:45.683Z,7.47
2019-04-14T11:47:45.668Z,7.49
2019-04-14T11:48:45.631Z,7.52
2019-04-14T11:49:45.625Z,7.63
2019-04-14T11:50:45.635Z,7.60
2019-04-14T11:51:55.213Z,7.74
2019-04-14T11:52:46.610Z,7.84
2019-04-14T11:53:45.570Z,7.81
2019-04-14T11:54:45.561Z,7.78
2019-04-14T11:55:45.557Z,7.87
2019-04-14T11:56:45.543Z,7.94
2019-04-14T11:57:45.532Z,7.93
2019-04-14T11:58:45.531Z,8.08
2019-04-14T11:59:45.536Z,8.14
2019-04-14T12:00:45.506Z,8.14
2019-04-14T12:01:45.500Z,8.18
2019-04-14T12:02:45.484Z,8.18
2019-04-14T12:03:45.491Z,8.28
2019-04-14T12:04:45.453Z,8.36
2019-04-14T12:05:45.438Z,8.54
2019-04-14T12:06:45.417Z,8.60
2019-04-14T12:07:45.419Z,8.66
2019-04-14T12:08:45.658Z,8.63
2019-04-14T12:09:45.414Z,8.73
2019-04-14T12:10:45.398Z,8.72
2019-04-14T12:11:45.383Z,8.86
2019-04-14T12:12:45.356Z,8.91
2019-04-14T12:13:45.354Z,8.87
2019-04-14T12:14:45.370Z,8.84
2019-04-14T12:15:45.337Z,8.91
2019-04-14T12:16:45.314Z,8.96
2019-04-14T12:17:45.303Z,8.99
2019-04-14T12:18:45.289Z,9.13
2019-04-14T12:19:45.308Z,9.16
2019-04-14T12:20:45.293Z,9.16
2019-04-14T12:21:45.274Z,9.04
2019-04-14T12:22:45.276Z,8.87
2019-04-14T12:23:45.236Z,9.05
2019-04-14T12:24:45.241Z,9.04
2019-04-14T12:25:45.235Z,9.20
2019-04-14T12:26:45.196Z,9.34
2019-04-14T12:27:46.299Z,9.24
2019-04-14T12:28:45.201Z,9.28
2019-04-14T12:29:45.770Z,9.38
2019-04-14T12:30:45.163Z,9.58
2019-04-14T12:31:46.270Z,9.57
2019-04-14T12:32:45.144Z,9.66
2019-04-14T12:33:45.137Z,9.68
2019-04-14T12:34:45.135Z,9.63
2019-04-14T12:35:45.130Z,9.60
2019-04-14T12:36:45.085Z,9.61
2019-04-14T12:37:45.074Z,9.52
2019-04-14T12:38:45.074Z,9.38
2019-04-14T12:39:45.054Z,9.46
2019-04-14T12:40:45.081Z,9.39
2019-04-14T12:41:45.048Z,9.39
2019-04-14T12:42:45.032Z,9.58
2019-04-14T12:43:45.016Z,9.45
2019-04-14T12:44:44.998Z,9.35
2019-04-14T12:45:45.008Z,9.42
2019-04-14T12:46:45.018Z,9.53
2019-04-14T12:47:45.001Z,9.57
2019-04-14T12:48:44.975Z,9.58
2019-04-14T12:49:44.951Z,9.73
2019-04-14T12:50:44.935Z,9.83
2019-04-14T12:51:44.939Z,9.93
2019-04-14T12:52:44.958Z,9.94
2019-04-14T12:53:44.921Z,10.00
2019-04-14T12:54:44.909Z,9.93
2019-04-14T12:55:44.889Z,9.83
2019-04-14T12:56:44.866Z,9.85
2019-04-14T12:57:44.855Z,9.94
2019-04-14T12:58:44.864Z,9.89
2019-04-14T12:59:44.833Z,9.85
2019-04-14T13:00:44.840Z,9.88
2019-04-14T13:01:44.812Z,9.83
2019-04-14T13:02:44.800Z,9.67
2019-04-14T13:03:44.807Z,9.67
2019-04-14T13:04:44.804Z,9.60
2019-04-14T13:05:44.780Z,9.67
2019-04-14T13:06:44.765Z,9.56
2019-04-14T13:07:44.758Z,9.58
2019-04-14T13:08:44.764Z,9.63
2019-04-14T13:09:44.761Z,9.66
2019-04-14T13:10:44.715Z,9.63
2019-04-14T13:11:44.707Z,9.61
2019-04-14T13:12:44.701Z,9.64
2019-04-14T13:13:44.704Z,9.81
2019-04-14T13:14:44.718Z,9.93
2019-04-14T13:15:44.672Z,10.10
2019-04-14T13:16:44.641Z,10.12
2019-04-14T13:17:44.663Z,10.12
2019-04-14T13:18:44.634Z,10.26
2019-04-14T13:19:44.631Z,10.34
2019-04-14T13:20:44.625Z,10.37
2019-04-14T13:21:44.604Z,10.44
2019-04-14T13:22:44.584Z,10.43
2019-04-14T13:23:44.572Z,10.55
2019-04-14T13:24:44.597Z,10.62
2019-04-14T13:25:44.564Z,10.78
2019-04-14T13:26:44.547Z,10.96
2019-04-14T13:27:44.540Z,11.01
2019-04-14T13:28:44.519Z,10.96
2019-04-14T13:29:44.515Z,10.98
2019-04-14T13:30:44.520Z,10.88
2019-04-14T13:31:44.480Z,10.77